Time;durP1;ratioP1;P1;durP2;ratioP2;P2;SDS_P1;SDS_P2;PMS_P1;PMS_P2;Temp;Humidity;BMP_temperature;BMP_pressure;BME280_temperature;BME280_humidity;BME280_pressure;Samples;Min_cycle;Max_cycle;Signal;HPM_P1;HPM_P2
2021/03/27 03:00:48;;;;;;;3.30;2.35;;;;;;;;;;10513525;22;20079;-86
2021/03/27 03:06:13;;;;;;;3.38;1.92;;;;;;;;;;10339288;28;20065;-86
2021/03/27 03:11:33;;;;;;;2.55;1.88;;;;;;;;;;10335635;28;20038;-86
2021/03/27 03:17:05;;;;;;;2.28;1.60;;;;;;;;;;10353530;28;20045;-85
2021/03/27 03:22:42;;;;;;;1.98;1.75;;;;;;;;;;10443811;28;20490;-86
2021/03/27 03:28:38;;;;;;;4.68;2.47;;;;;;;;;;10537259;28;20048;-86
2021/03/27 03:40:26;;;;;;;3.33;2.17;;;;;;;;;;10483619;28;20024;-86
2021/03/27 03:46:00;;;;;;;3.78;2.38;;;;;;;;;;10463438;28;20025;-86
2021/03/27 03:51:40;;;;;;;4.70;2.20;;;;;;;;;;10447768;28;20056;-86
2021/03/27 03:57:26;;;;;;;3.67;2.10;;;;;;;;;;10432440;28;20045;-86
2021/03/27 04:03:08;;;;;;;3.38;1.80;;;;;;;;;;10380723;28;20108;-86
2021/03/27 04:08:42;;;;;;;2.90;1.70;;;;;;;;;;10438429;28;20052;-86
2021/03/27 04:14:25;;;;;;;3.83;1.95;;;;;;;;;;10432676;28;20446;-86
2021/03/27 04:25:59;;;;;;;4.32;1.70;;;;;;;;;;10436425;28;20033;-85
2021/03/27 04:37:34;;;;;;;4.93;2.20;;;;;;;;;;10531985;28;20063;-86
2021/03/27 04:49:14;;;;;;;4.57;2.20;;;;;;;;;;10547169;28;20033;-86
2021/03/27 05:00:34;;;;;;;4.93;2.25;;;;;;;;;;10332835;28;20050;-86
2021/03/27 05:06:13;;;;;;;5.25;2.72;;;;;;;;;;10320923;28;20045;-85
2021/03/27 05:17:51;;;;;;;5.47;2.75;;;;;;;;;;10300108;28;20038;-85
2021/03/27 05:23:09;;;;;;;4.13;2.10;;;;;;;;;;10202735;29;20040;-85
2021/03/27 05:28:35;;;;;;;5.03;2.38;;;;;;;;;;10267678;28;20072;-85
2021/03/27 05:34:21;;;;;;;6.05;2.53;;;;;;;;;;10400408;28;20057;-86
2021/03/27 05:46:11;;;;;;;4.47;2.10;;;;;;;;;;10281685;28;20063;-85
2021/03/27 05:51:51;;;;;;;5.88;2.20;;;;;;;;;;10440126;28;20217;-85
2021/03/27 05:57:04;;;;;;;;;;;;;;;;;;10507901;28;20042;-86
2021/03/27 06:08:25;;;;;;;3.58;1.58;;;;;;;;;;10512665;28;20024;-86
2021/03/27 06:25:32;;;;;;;3.05;2.08;;;;;;;;;;10508313;28;20040;-86
2021/03/27 06:31:12;;;;;;;3.83;2.20;;;;;;;;;;10512519;28;20091;-86
2021/03/27 06:36:53;;;;;;;3.72;2.17;;;;;;;;;;10509379;28;20035;-85
2021/03/27 06:42:51;;;;;;;5.20;2.17;;;;;;;;;;10464106;28;20104;-85
2021/03/27 06:48:22;;;;;;;4.50;1.90;;;;;;;;;;10447404;28;20503;-85
2021/03/27 06:54:07;;;;;;;3.67;1.77;;;;;;;;;;10424868;28;20465;-85
2021/03/27 06:59:46;;;;;;;4.57;2.05;;;;;;;;;;10459034;28;20041;-85
2021/03/27 07:05:22;;;;;;;6.07;2.40;;;;;;;;;;10458124;28;20506;-85
2021/03/27 07:11:08;;;;;;;5.65;2.55;;;;;;;;;;10447260;28;20021;-85
2021/03/27 07:16:46;;;;;;;5.25;2.22;;;;;;;;;;10536544;28;20115;-86
2021/03/27 07:22:11;;;;;;;4.00;1.65;;;;;;;;;;10494799;28;20454;-86
2021/03/27 07:27:32;;;;;;;2.47;1.10;;;;;;;;;;10515877;28;20062;-85
2021/03/27 07:38:40;;;;;;;1.67;0.80;;;;;;;;;;10514900;28;20036;-86
2021/03/27 07:49:49;;;;;;;1.45;0.65;;;;;;;;;;10511629;28;20009;-85
2021/03/27 07:55:12;;;;;;;0.77;0.45;;;;;;;;;;10494910;28;20102;-87
2021/03/27 08:00:44;;;;;;;1.42;0.73;;;;;;;;;;10427831;28;20034;-83
2021/03/27 08:06:03;;;;;;;1.33;0.73;;;;;;;;;;10483842;28;20081;-84
2021/03/27 08:11:39;;;;;;;2.05;0.70;;;;;;;;;;10500168;28;20062;-87
2021/03/27 08:17:24;;;;;;;1.77;0.77;;;;;;;;;;10509445;28;20044;-88
2021/03/27 08:22:52;;;;;;;2.15;0.85;;;;;;;;;;10479733;28;20037;-87
2021/03/27 08:28:10;;;;;;;2.90;1.02;;;;;;;;;;10514719;28;20040;-87
2021/03/27 08:33:11;;;;;;;2.92;1.33;;;;;;;;;;10497473;28;20037;-86
2021/03/27 08:38:12;;;;;;;3.17;1.42;;;;;;;;;;10498227;28;20106;-86
2021/03/27 08:43:13;;;;;;;3.55;1.40;;;;;;;;;;10498064;28;20062;-87
2021/03/27 08:49:01;;;;;;;;;;;;;;;;;;;;;
2021/03/27 08:54:08;;;;;;;3.60;1.45;;;;;;;;;;10515124;28;20241;-86
2021/03/27 08:59:18;;;;;;;4.53;1.70;;;;;;;;;;10503626;22;20052;-86
2021/03/27 09:04:38;;;;;;;3.20;1.45;;;;;;;;;;10502342;28;20036;-86
2021/03/27 09:10:02;;;;;;;5.88;2.00;;;;;;;;;;10503710;28;20101;-86
2021/03/27 09:15:42;;;;;;;6.20;1.85;;;;;;;;;;10490880;28;20041;-86
2021/03/27 09:20:45;;;;;;;4.55;2.00;;;;;;;;;;10497854;28;20036;-85
2021/03/27 09:26:17;;;;;;;5.68;2.08;;;;;;;;;;10498892;28;20055;-84
2021/03/27 09:37:26;;;;;;;4.45;1.90;;;;;;;;;;10526473;28;20371;-85
2021/03/27 09:48:37;;;;;;;2.42;1.30;;;;;;;;;;10391466;28;20049;-85
2021/03/27 09:53:41;;;;;;;2.13;1.10;;;;;;;;;;10371141;28;20061;-82
2021/03/27 09:58:42;;;;;;;3.53;1.00;;;;;;;;;;10494928;28;20032;-84
2021/03/27 10:04:06;;;;;;;3.60;1.00;;;;;;;;;;10492944;28;20037;-83
2021/03/27 10:09:07;;;;;;;3.17;0.90;;;;;;;;;;10476635;28;20489;-84
2021/03/27 10:14:20;;;;;;;2.30;1.02;;;;;;;;;;10493347;28;20032;-84
2021/03/27 10:19:32;;;;;;;2.55;0.90;;;;;;;;;;10481628;28;20039;-83
2021/03/27 10:25:09;;;;;;;1.75;0.82;;;;;;;;;;10519178;28;20032;-84
2021/03/27 10:30:34;;;;;;;1.55;0.90;;;;;;;;;;10353706;28;20045;-84
2021/03/27 10:36:24;;;;;;;3.00;1.05;;;;;;;;;;10369495;28;20042;-84
2021/03/27 10:42:03;;;;;;;1.83;0.85;;;;;;;;;;10387199;28;20028;-81
2021/03/27 10:47:04;;;;;;;;;;;;;;;;;;10510779;28;20033;-83
2021/03/27 10:52:12;;;;;;;3.38;1.08;;;;;;;;;;10518781;28;19905;-85
2021/03/27 10:57:32;;;;;;;3.13;1.00;;;;;;;;;;10519867;28;20074;-82
2021/03/27 11:02:50;;;;;;;3.60;1.10;;;;;;;;;;10520144;28;20500;-80
2021/03/27 11:08:10;;;;;;;4.93;1.10;;;;;;;;;;10519789;28;20045;-83
2021/03/27 11:13:48;;;;;;;3.13;1.15;;;;;;;;;;10522305;28;20100;-82
2021/03/27 11:19:05;;;;;;;2.72;1.10;;;;;;;;;;10424879;28;20064;-81
2021/03/27 11:24:20;;;;;;;2.80;1.33;;;;;;;;;;10523204;28;20041;-85
2021/03/27 11:29:49;;;;;;;4.13;1.40;;;;;;;;;;10539943;28;20056;-79
2021/03/27 11:35:06;;;;;;;4.13;1.10;;;;;;;;;;10501500;28;20036;-80
2021/03/27 11:40:23;;;;;;;5.68;2.00;;;;;;;;;;10528946;28;20056;-81
2021/03/27 11:45:24;;;;;;;4.82;1.67;;;;;;;;;;10512906;28;20033;-83
2021/03/27 11:50:47;;;;;;;3.85;1.40;;;;;;;;;;10509204;28;20040;-86
2021/03/27 11:55:58;;;;;;;4.97;1.52;;;;;;;;;;10531891;28;20409;-84
2021/03/27 12:01:09;;;;;;;4.13;1.52;;;;;;;;;;10510847;28;20090;-85
2021/03/27 12:06:29;;;;;;;3.55;1.35;;;;;;;;;;10516509;28;20048;-86
2021/03/27 12:12:07;;;;;;;4.50;1.20;;;;;;;;;;10513131;28;20059;-84
2021/03/27 12:17:27;;;;;;;3.35;1.42;;;;;;;;;;10430189;28;20072;-83
2021/03/27 12:22:37;;;;;;;4.00;1.42;;;;;;;;;;10515317;28;20033;-86
2021/03/27 12:28:14;;;;;;;2.80;1.38;;;;;;;;;;10513822;28;20032;-83
2021/03/27 12:33:27;;;;;;;3.90;1.20;;;;;;;;;;10532024;28;20033;-83
2021/03/27 12:38:51;;;;;;;4.03;1.38;;;;;;;;;;10539826;28;20136;-80
2021/03/27 12:43:54;;;;;;;3.40;1.40;;;;;;;;;;10520215;28;20032;-83
2021/03/27 12:49:23;;;;;;;4.47;1.10;;;;;;;;;;10501854;28;20039;-84
2021/03/27 12:54:37;;;;;;;3.13;1.45;;;;;;;;;;10500706;28;20038;-84
2021/03/27 14:19:08;;;;;;;5.03;1.65;;;;;;;;;;10507658;28;20033;-86
2021/03/27 15:21:33;;;;;;;3.88;1.30;;;;;;;;;;10541748;28;20104;-88
2021/03/27 15:32:33;;;;;;;3.85;1.30;;;;;;;;;;10501902;28;20021;-86
2021/03/27 15:38:02;;;;;;;3.63;1.35;;;;;;;;;;10450656;28;20107;-88
2021/03/27 15:43:29;;;;;;;5.22;1.50;;;;;;;;;;10474726;28;20040;-87
2021/03/27 15:49:17;;;;;;;4.20;1.42;;;;;;;;;;10471417;28;20471;-87
2021/03/27 15:55:08;;;;;;;;;;;;;;;;;;;;;
2021/03/27 16:00:43;;;;;;;5.75;1.42;;;;;;;;;;10525634;28;20111;-88
2021/03/27 16:06:12;;;;;;;5.95;2.42;;;;;;;;;;10503676;28;20448;-88
2021/03/27 16:11:35;;;;;;;4.65;1.63;;;;;;;;;;10480245;28;20032;-87
2021/03/27 16:23:01;;;;;;;3.17;1.67;;;;;;;;;;10511311;28;20046;-87
2021/03/27 16:28:29;;;;;;;5.28;1.80;;;;;;;;;;10480350;28;20120;-87
2021/03/27 16:35:10;;;;;;;5.40;1.70;;;;;;;;;;10511106;28;20039;-87
2021/03/27 16:40:01;;;;;;;3.97;1.40;;;;;;;;;;10498841;28;20372;-88
2021/03/27 16:45:49;;;;;;;;;;;;;;;;;;;;;
2021/03/27 16:51:29;;;;;;;5.00;1.75;;;;;;;;;;10444236;28;20047;-87
2021/03/27 16:57:02;;;;;;;4.57;1.60;;;;;;;;;;10511409;28;20090;-87
2021/03/27 17:02:27;;;;;;;6.47;1.70;;;;;;;;;;10337638;28;20489;-87
2021/03/27 17:07:31;;;;;;;5.03;1.52;;;;;;;;;;10413432;28;20112;-87
2021/03/27 17:24:27;;;;;;;5.93;1.80;;;;;;;;;;10426017;28;20057;-86
2021/03/27 17:35:47;;;;;;;4.45;1.77;;;;;;;;;;10350127;28;20033;-87
2021/03/27 17:41:13;;;;;;;5.30;2.00;;;;;;;;;;10417724;28;20045;-87
2021/03/27 17:52:32;;;;;;;6.05;1.95;;;;;;;;;;10419649;28;20017;-86
2021/03/27 17:58:19;;;;;;;4.55;1.67;;;;;;;;;;10264207;29;20061;-86
2021/03/27 18:04:03;;;;;;;5.80;2.03;;;;;;;;;;10294502;28;20038;-85
2021/03/27 18:09:39;;;;;;;5.82;1.65;;;;;;;;;;10306958;28;20030;-86
2021/03/27 19:01:03;;;;;;;5.80;1.83;;;;;;;;;;10511622;28;20008;-87
2021/03/27 19:18:02;;;;;;;4.55;2.17;;;;;;;;;;10509398;28;20028;-87
2021/03/27 19:23:25;;;;;;;4.72;2.10;;;;;;;;;;10534371;28;20060;-86
2021/03/27 19:34:36;;;;;;;5.63;2.22;;;;;;;;;;10525976;28;20059;-87
2021/03/27 19:45:41;;;;;;;4.05;2.08;;;;;;;;;;10496020;28;19912;-87
2021/03/27 19:56:53;;;;;;;4.68;2.10;;;;;;;;;;10380532;28;20070;-87
2021/03/27 20:08:02;;;;;;;4.50;1.95;;;;;;;;;;10507391;28;20386;-89
2021/03/27 20:13:50;;;;;;;5.80;3.85;;;;;;;;;;10339353;28;20089;-88
2021/03/27 20:19:36;;;;;;;3.95;1.75;;;;;;;;;;10294538;29;20067;-87
2021/03/27 20:25:06;;;;;;;5.22;2.58;;;;;;;;;;10304190;28;20137;-87
2021/03/27 20:36:27;;;;;;;4.70;2.50;;;;;;;;;;10194615;29;20048;-88
2021/03/27 20:42:09;;;;;;;4.68;2.40;;;;;;;;;;10148281;29;20028;-88
2021/03/27 20:47:53;;;;;;;6.53;3.50;;;;;;;;;;10215605;28;20045;-87
2021/03/27 21:04:56;;;;;;;6.25;3.38;;;;;;;;;;10314205;28;20034;-86
2021/03/27 21:10:35;;;;;;;7.30;3.42;;;;;;;;;;10369400;28;20030;-87
2021/03/27 21:16:15;;;;;;;3.70;2.53;;;;;;;;;;10331342;28;20043;-88
2021/03/27 21:32:22;;;;;;;4.28;2.35;;;;;;;;;;10477636;28;20051;-87
2021/03/27 21:37:59;;;;;;;4.80;2.97;;;;;;;;;;10441752;28;20059;-88
2021/03/27 21:43:36;;;;;;;3.90;2.40;;;;;;;;;;10462703;28;20045;-87
2021/03/27 21:49:02;;;;;;;4.65;3.05;;;;;;;;;;10437035;28;20192;-87
2021/03/27 21:54:26;;;;;;;5.88;3.45;;;;;;;;;;10469367;28;20141;-87
2021/03/27 21:59:50;;;;;;;5.57;3.20;;;;;;;;;;10438350;28;20041;-86
2021/03/27 22:17:34;;;;;;;4.70;3.40;;;;;;;;;;10383424;28;20453;-87
2021/03/27 22:22:48;;;;;;;6.82;3.40;;;;;;;;;;10377556;28;20496;-87
2021/03/27 22:28:27;;;;;;;6.20;3.20;;;;;;;;;;10395271;28;20115;-87
2021/03/27 22:33:54;;;;;;;6.68;3.30;;;;;;;;;;10449063;28;20033;-87
2021/03/27 22:39:11;;;;;;;6.22;3.35;;;;;;;;;;10464244;28;20148;-88
2021/03/27 22:44:31;;;;;;;5.07;2.90;;;;;;;;;;10448256;28;20087;-87
2021/03/27 22:49:54;;;;;;;5.13;2.70;;;;;;;;;;10432480;28;20037;-87
2021/03/27 22:55:45;;;;;;;6.53;2.90;;;;;;;;;;10450076;28;20040;-87
2021/03/27 23:06:58;;;;;;;4.82;2.65;;;;;;;;;;10480432;28;20029;-87
